sensor_id;sensor_type;location;lat;lon;timestamp;temperature;humidity
51327;DHT22;37412;52.836;6.362;2023-08-31T00:01:50;11.70;99.90
51327;DHT22;37412;52.836;6.362;2023-08-31T00:04:38;11.70;99.90
51327;DHT22;37412;52.836;6.362;2023-08-31T00:07:24;11.70;99.90
51327;DHT22;37412;52.836;6.362;2023-08-31T00:10:10;11.80;99.90
51327;DHT22;37412;52.836;6.362;2023-08-31T00:12:57;11.80;99.90
51327;DHT22;37412;52.836;6.362;2023-08-31T00:15:43;11.80;99.90
51327;DHT22;37412;52.836;6.362;2023-08-31T00:18:29;11.90;99.90
51327;DHT22;37412;52.836;6.362;2023-08-31T00:21:15;11.90;99.90
51327;DHT22;37412;52.836;6.362;2023-08-31T00:24:01;11.90;99.90
51327;DHT22;37412;52.836;6.362;2023-08-31T00:26:48;11.90;99.90
51327;DHT22;37412;52.836;6.362;2023-08-31T00:29:36;11.90;99.90
51327;DHT22;37412;52.836;6.362;2023-08-31T00:32:24;11.90;99.90
51327;DHT22;37412;52.836;6.362;2023-08-31T00:35:10;11.90;99.90
51327;DHT22;37412;52.836;6.362;2023-08-31T00:37:56;11.90;99.90
51327;DHT22;37412;52.836;6.362;2023-08-31T00:40:46;11.90;99.90
51327;DHT22;37412;52.836;6.362;2023-08-31T00:43:32;11.90;99.90
51327;DHT22;37412;52.836;6.362;2023-08-31T00:46:18;11.80;99.90
51327;DHT22;37412;52.836;6.362;2023-08-31T00:49:04;11.80;99.90
51327;DHT22;37412;52.836;6.362;2023-08-31T00:51:50;11.80;99.90
51327;DHT22;37412;52.836;6.362;2023-08-31T00:54:36;11.70;99.90
51327;DHT22;37412;52.836;6.362;2023-08-31T00:57:22;11.70;99.90
51327;DHT22;37412;52.836;6.362;2023-08-31T01:00:08;11.70;99.90
51327;DHT22;37412;52.836;6.362;2023-08-31T01:03:19;11.60;99.90
51327;DHT22;37412;52.836;6.362;2023-08-31T01:06:23;11.60;99.90
51327;DHT22;37412;52.836;6.362;2023-08-31T01:12:53;11.60;99.90
51327;DHT22;37412;52.836;6.362;2023-08-31T01:15:45;11.60;99.90
51327;DHT22;37412;52.836;6.362;2023-08-31T01:18:32;11.60;99.90
51327;DHT22;37412;52.836;6.362;2023-08-31T01:21:25;11.60;99.90
51327;DHT22;37412;52.836;6.362;2023-08-31T01:24:13;11.50;99.90
51327;DHT22;37412;52.836;6.362;2023-08-31T01:26:59;11.50;99.90
51327;DHT22;37412;52.836;6.362;2023-08-31T01:29:45;11.50;99.90
51327;DHT22;37412;52.836;6.362;2023-08-31T01:32:32;11.50;99.90
51327;DHT22;37412;52.836;6.362;2023-08-31T01:35:18;11.50;99.90
51327;DHT22;37412;52.836;6.362;2023-08-31T01:38:05;11.50;99.90
51327;DHT22;37412;52.836;6.362;2023-08-31T01:43:43;11.50;99.90
51327;DHT22;37412;52.836;6.362;2023-08-31T01:46:30;11.60;99.90
51327;DHT22;37412;52.836;6.362;2023-08-31T01:49:16;11.60;99.90
51327;DHT22;37412;52.836;6.362;2023-08-31T01:52:02;11.60;99.90
51327;DHT22;37412;52.836;6.362;2023-08-31T01:54:48;11.50;99.90
51327;DHT22;37412;52.836;6.362;2023-08-31T01:57:34;11.50;99.90
51327;DHT22;37412;52.836;6.362;2023-08-31T02:00:20;11.50;99.90
51327;DHT22;37412;52.836;6.362;2023-08-31T02:03:06;11.50;99.90
51327;DHT22;37412;52.836;6.362;2023-08-31T02:05:53;11.50;99.90
51327;DHT22;37412;52.836;6.362;2023-08-31T02:08:40;11.50;99.90
51327;DHT22;37412;52.836;6.362;2023-08-31T02:11:25;11.50;99.90
51327;DHT22;37412;52.836;6.362;2023-08-31T02:14:11;11.50;99.90
51327;DHT22;37412;52.836;6.362;2023-08-31T02:16:57;11.50;99.90
51327;DHT22;37412;52.836;6.362;2023-08-31T02:19:43;11.40;99.90
51327;DHT22;37412;52.836;6.362;2023-08-31T02:22:30;11.40;99.90
51327;DHT22;37412;52.836;6.362;2023-08-31T02:25:17;11.40;99.90
51327;DHT22;37412;52.836;6.362;2023-08-31T02:28:03;11.40;99.90
51327;DHT22;37412;52.836;6.362;2023-08-31T02:30:58;11.30;99.90
51327;DHT22;37412;52.836;6.362;2023-08-31T02:33:48;11.30;99.90
51327;DHT22;37412;52.836;6.362;2023-08-31T02:36:34;11.30;99.90
51327;DHT22;37412;52.836;6.362;2023-08-31T02:39:20;11.30;99.90
51327;DHT22;37412;52.836;6.362;2023-08-31T02:42:06;11.30;99.90
51327;DHT22;37412;52.836;6.362;2023-08-31T02:44:53;11.90;99.90
51327;DHT22;37412;52.836;6.362;2023-08-31T02:47:39;11.30;99.90
51327;DHT22;37412;52.836;6.362;2023-08-31T02:50:25;11.30;99.90
51327;DHT22;37412;52.836;6.362;2023-08-31T02:53:11;11.20;99.90
51327;DHT22;37412;52.836;6.362;2023-08-31T02:55:57;11.20;99.90
51327;DHT22;37412;52.836;6.362;2023-08-31T02:58:43;11.20;99.90
51327;DHT22;37412;52.836;6.362;2023-08-31T03:01:29;11.20;99.90
51327;DHT22;37412;52.836;6.362;2023-08-31T03:04:15;11.20;99.90
51327;DHT22;37412;52.836;6.362;2023-08-31T03:07:03;12.00;99.90
51327;DHT22;37412;52.836;6.362;2023-08-31T03:09:49;11.20;99.90
51327;DHT22;37412;52.836;6.362;2023-08-31T03:12:36;11.20;99.90
51327;DHT22;37412;52.836;6.362;2023-08-31T03:15:22;11.20;99.90
51327;DHT22;37412;52.836;6.362;2023-08-31T03:18:08;11.20;99.90
51327;DHT22;37412;52.836;6.362;2023-08-31T03:20:55;11.30;99.90
51327;DHT22;37412;52.836;6.362;2023-08-31T03:23:41;11.30;99.90
51327;DHT22;37412;52.836;6.362;2023-08-31T03:26:27;11.30;99.90
51327;DHT22;37412;52.836;6.362;2023-08-31T03:29:13;11.30;99.90
51327;DHT22;37412;52.836;6.362;2023-08-31T03:32:00;11.20;99.90
51327;DHT22;37412;52.836;6.362;2023-08-31T03:34:46;11.30;99.90
51327;DHT22;37412;52.836;6.362;2023-08-31T03:37:31;11.30;99.90
51327;DHT22;37412;52.836;6.362;2023-08-31T03:40:17;11.30;99.90
51327;DHT22;37412;52.836;6.362;2023-08-31T03:43:03;11.30;99.90
51327;DHT22;37412;52.836;6.362;2023-08-31T03:45:53;11.30;99.90
51327;DHT22;37412;52.836;6.362;2023-08-31T03:48:41;11.30;99.90
51327;DHT22;37412;52.836;6.362;2023-08-31T03:51:27;11.30;99.90
51327;DHT22;37412;52.836;6.362;2023-08-31T03:54:13;11.30;99.90
51327;DHT22;37412;52.836;6.362;2023-08-31T03:56:59;11.30;99.90
51327;DHT22;37412;52.836;6.362;2023-08-31T03:59:44;11.40;99.90
51327;DHT22;37412;52.836;6.362;2023-08-31T04:02:30;11.40;99.90
51327;DHT22;37412;52.836;6.362;2023-08-31T04:05:16;11.40;99.90
51327;DHT22;37412;52.836;6.362;2023-08-31T04:08:02;11.40;99.90
51327;DHT22;37412;52.836;6.362;2023-08-31T04:10:49;11.40;99.90
51327;DHT22;37412;52.836;6.362;2023-08-31T04:13:35;11.40;99.90
51327;DHT22;37412;52.836;6.362;2023-08-31T04:16:20;11.40;99.90
51327;DHT22;37412;52.836;6.362;2023-08-31T04:19:06;11.50;99.90
51327;DHT22;37412;52.836;6.362;2023-08-31T04:21:52;11.50;99.90
51327;DHT22;37412;52.836;6.362;2023-08-31T04:24:38;11.50;99.90
51327;DHT22;37412;52.836;6.362;2023-08-31T04:27:24;11.50;99.90
51327;DHT22;37412;52.836;6.362;2023-08-31T04:30:11;11.50;99.90
51327;DHT22;37412;52.836;6.362;2023-08-31T04:32:57;11.50;99.90
51327;DHT22;37412;52.836;6.362;2023-08-31T04:35:43;11.50;99.90
51327;DHT22;37412;52.836;6.362;2023-08-31T04:38:29;11.40;99.90
51327;DHT22;37412;52.836;6.362;2023-08-31T04:41:15;11.40;99.90
51327;DHT22;37412;52.836;6.362;2023-08-31T04:44:00;11.40;99.90
51327;DHT22;37412;52.836;6.362;2023-08-31T04:46:46;11.40;99.90
51327;DHT22;37412;52.836;6.362;2023-08-31T04:49:32;11.40;99.90
51327;DHT22;37412;52.836;6.362;2023-08-31T04:52:18;11.40;99.90
51327;DHT22;37412;52.836;6.362;2023-08-31T04:55:06;11.40;99.90
51327;DHT22;37412;52.836;6.362;2023-08-31T04:57:56;11.40;99.90
51327;DHT22;37412;52.836;6.362;2023-08-31T05:00:43;11.40;99.90
51327;DHT22;37412;52.836;6.362;2023-08-31T05:03:30;12.00;99.90
51327;DHT22;37412;52.836;6.362;2023-08-31T05:06:16;11.50;99.90
51327;DHT22;37412;52.836;6.362;2023-08-31T05:09:01;11.50;99.90
51327;DHT22;37412;52.836;6.362;2023-08-31T05:11:48;11.50;99.90
51327;DHT22;37412;52.836;6.362;2023-08-31T05:14:34;11.50;99.90
51327;DHT22;37412;52.836;6.362;2023-08-31T05:17:22;11.60;99.90
51327;DHT22;37412;52.836;6.362;2023-08-31T05:20:09;11.50;99.90
51327;DHT22;37412;52.836;6.362;2023-08-31T05:22:55;11.60;99.90
51327;DHT22;37412;52.836;6.362;2023-08-31T05:25:42;11.60;99.90
51327;DHT22;37412;52.836;6.362;2023-08-31T05:28:28;11.60;99.90
51327;DHT22;37412;52.836;6.362;2023-08-31T05:31:15;11.60;99.90
51327;DHT22;37412;52.836;6.362;2023-08-31T05:34:01;11.60;99.90
51327;DHT22;37412;52.836;6.362;2023-08-31T05:36:47;11.60;99.90
51327;DHT22;37412;52.836;6.362;2023-08-31T05:39:34;11.60;99.90
51327;DHT22;37412;52.836;6.362;2023-08-31T05:42:20;11.70;99.90
51327;DHT22;37412;52.836;6.362;2023-08-31T05:45:06;11.70;99.90
51327;DHT22;37412;52.836;6.362;2023-08-31T05:47:52;11.70;99.90
51327;DHT22;37412;52.836;6.362;2023-08-31T05:50:38;11.70;99.90
51327;DHT22;37412;52.836;6.362;2023-08-31T05:53:24;11.80;99.90
51327;DHT22;37412;52.836;6.362;2023-08-31T05:56:10;11.80;99.90
51327;DHT22;37412;52.836;6.362;2023-08-31T05:58:55;11.80;99.90
51327;DHT22;37412;52.836;6.362;2023-08-31T06:01:43;11.90;99.90
51327;DHT22;37412;52.836;6.362;2023-08-31T06:04:29;12.00;99.90
51327;DHT22;37412;52.836;6.362;2023-08-31T06:07:14;12.10;99.90
51327;DHT22;37412;52.836;6.362;2023-08-31T06:10:00;12.10;99.90
51327;DHT22;37412;52.836;6.362;2023-08-31T06:12:46;12.20;99.90
51327;DHT22;37412;52.836;6.362;2023-08-31T06:15:32;12.20;99.90
51327;DHT22;37412;52.836;6.362;2023-08-31T06:18:18;12.30;99.90
51327;DHT22;37412;52.836;6.362;2023-08-31T06:21:04;12.30;99.90
51327;DHT22;37412;52.836;6.362;2023-08-31T06:23:50;12.40;99.90
51327;DHT22;37412;52.836;6.362;2023-08-31T06:26:36;12.40;99.90
51327;DHT22;37412;52.836;6.362;2023-08-31T06:29:22;12.50;99.90
51327;DHT22;37412;52.836;6.362;2023-08-31T06:32:08;12.50;99.90
51327;DHT22;37412;52.836;6.362;2023-08-31T06:34:54;12.60;99.90
51327;DHT22;37412;52.836;6.362;2023-08-31T06:37:40;12.70;99.90
51327;DHT22;37412;52.836;6.362;2023-08-31T06:40:26;12.70;99.90
51327;DHT22;37412;52.836;6.362;2023-08-31T06:43:12;12.70;99.90
51327;DHT22;37412;52.836;6.362;2023-08-31T06:45:58;12.80;99.90
51327;DHT22;37412;52.836;6.362;2023-08-31T06:48:44;12.80;99.90
51327;DHT22;37412;52.836;6.362;2023-08-31T06:51:30;12.90;99.90
51327;DHT22;37412;52.836;6.362;2023-08-31T06:54:16;12.90;99.90
51327;DHT22;37412;52.836;6.362;2023-08-31T06:57:02;12.90;99.90
51327;DHT22;37412;52.836;6.362;2023-08-31T06:59:48;13.00;99.90
51327;DHT22;37412;52.836;6.362;2023-08-31T07:02:36;13.00;99.90
51327;DHT22;37412;52.836;6.362;2023-08-31T07:05:25;13.10;99.90
51327;DHT22;37412;52.836;6.362;2023-08-31T07:08:11;13.20;99.90
51327;DHT22;37412;52.836;6.362;2023-08-31T07:10:57;13.30;99.90
51327;DHT22;37412;52.836;6.362;2023-08-31T07:13:43;13.50;99.90
51327;DHT22;37412;52.836;6.362;2023-08-31T07:16:29;13.50;99.90
51327;DHT22;37412;52.836;6.362;2023-08-31T07:19:15;13.60;99.90
51327;DHT22;37412;52.836;6.362;2023-08-31T07:22:01;13.70;99.90
51327;DHT22;37412;52.836;6.362;2023-08-31T07:24:47;13.90;99.90
51327;DHT22;37412;52.836;6.362;2023-08-31T07:27:33;14.00;99.90
51327;DHT22;37412;52.836;6.362;2023-08-31T07:30:19;14.10;99.90
51327;DHT22;37412;52.836;6.362;2023-08-31T07:33:05;14.30;99.90
51327;DHT22;37412;52.836;6.362;2023-08-31T07:35:52;14.40;99.90
51327;DHT22;37412;52.836;6.362;2023-08-31T07:38:38;14.40;99.90
51327;DHT22;37412;52.836;6.362;2023-08-31T07:41:24;14.50;99.90
51327;DHT22;37412;52.836;6.362;2023-08-31T07:44:10;14.80;99.90
51327;DHT22;37412;52.836;6.362;2023-08-31T07:46:55;15.10;99.90
51327;DHT22;37412;52.836;6.362;2023-08-31T07:49:41;15.50;99.90
51327;DHT22;37412;52.836;6.362;2023-08-31T07:52:28;16.10;99.90
51327;DHT22;37412;52.836;6.362;2023-08-31T07:55:13;16.70;99.90
51327;DHT22;37412;52.836;6.362;2023-08-31T07:58:00;17.40;99.90
51327;DHT22;37412;52.836;6.362;2023-08-31T08:00:46;18.20;99.90
51327;DHT22;37412;52.836;6.362;2023-08-31T08:03:32;18.80;99.90
51327;DHT22;37412;52.836;6.362;2023-08-31T08:06:18;19.50;99.90
51327;DHT22;37412;52.836;6.362;2023-08-31T08:09:04;20.20;99.90
51327;DHT22;37412;52.836;6.362;2023-08-31T08:11:50;20.80;99.90
51327;DHT22;37412;52.836;6.362;2023-08-31T08:14:36;21.10;99.90
51327;DHT22;37412;52.836;6.362;2023-08-31T08:17:22;21.40;99.90
51327;DHT22;37412;52.836;6.362;2023-08-31T08:20:08;21.90;99.90
51327;DHT22;37412;52.836;6.362;2023-08-31T08:22:54;22.80;99.90
51327;DHT22;37412;52.836;6.362;2023-08-31T08:25:41;22.40;99.90
51327;DHT22;37412;52.836;6.362;2023-08-31T08:28:27;21.40;99.90
51327;DHT22;37412;52.836;6.362;2023-08-31T08:31:13;20.30;99.90
51327;DHT22;37412;52.836;6.362;2023-08-31T08:34:00;19.20;99.90
51327;DHT22;37412;52.836;6.362;2023-08-31T08:36:46;18.20;99.90
51327;DHT22;37412;52.836;6.362;2023-08-31T08:39:32;17.50;99.90
51327;DHT22;37412;52.836;6.362;2023-08-31T08:42:18;17.50;99.90
51327;DHT22;37412;52.836;6.362;2023-08-31T08:45:05;18.80;99.90
51327;DHT22;37412;52.836;6.362;2023-08-31T08:47:51;20.10;99.90
51327;DHT22;37412;52.836;6.362;2023-08-31T08:50:37;19.90;99.90
51327;DHT22;37412;52.836;6.362;2023-08-31T08:53:23;19.20;99.90
51327;DHT22;37412;52.836;6.362;2023-08-31T08:56:09;18.60;99.90
51327;DHT22;37412;52.836;6.362;2023-08-31T08:58:55;19.20;99.90
51327;DHT22;37412;52.836;6.362;2023-08-31T09:01:41;20.80;99.90
51327;DHT22;37412;52.836;6.362;2023-08-31T09:04:29;22.20;99.90
51327;DHT22;37412;52.836;6.362;2023-08-31T09:07:15;23.30;99.90
51327;DHT22;37412;52.836;6.362;2023-08-31T09:10:01;23.80;99.90
51327;DHT22;37412;52.836;6.362;2023-08-31T09:12:46;24.40;99.90
51327;DHT22;37412;52.836;6.362;2023-08-31T09:15:36;24.90;99.90
51327;DHT22;37412;52.836;6.362;2023-08-31T09:18:23;25.00;99.90
51327;DHT22;37412;52.836;6.362;2023-08-31T09:21:10;25.10;99.90
51327;DHT22;37412;52.836;6.362;2023-08-31T09:23:56;25.20;99.90
51327;DHT22;37412;52.836;6.362;2023-08-31T09:26:56;24.70;99.90
51327;DHT22;37412;52.836;6.362;2023-08-31T09:29:46;24.10;99.90
51327;DHT22;37412;52.836;6.362;2023-08-31T09:32:32;23.20;99.90
51327;DHT22;37412;52.836;6.362;2023-08-31T09:35:18;22.40;99.90
51327;DHT22;37412;52.836;6.362;2023-08-31T09:38:04;21.60;99.90
51327;DHT22;37412;52.836;6.362;2023-08-31T09:40:58;20.80;99.90
51327;DHT22;37412;52.836;6.362;2023-08-31T09:43:49;20.30;99.90
51327;DHT22;37412;52.836;6.362;2023-08-31T09:46:34;20.00;99.90
51327;DHT22;37412;52.836;6.362;2023-08-31T09:49:20;19.90;99.90
51327;DHT22;37412;52.836;6.362;2023-08-31T09:52:06;19.80;99.90
51327;DHT22;37412;52.836;6.362;2023-08-31T09:54:53;19.60;99.90
51327;DHT22;37412;52.836;6.362;2023-08-31T09:57:40;19.40;99.90
51327;DHT22;37412;52.836;6.362;2023-08-31T10:00:26;19.10;99.90
51327;DHT22;37412;52.836;6.362;2023-08-31T10:03:12;18.90;99.90
51327;DHT22;37412;52.836;6.362;2023-08-31T10:06:01;18.90;99.90
51327;DHT22;37412;52.836;6.362;2023-08-31T10:08:47;19.00;99.90
51327;DHT22;37412;52.836;6.362;2023-08-31T10:11:33;18.90;99.90
51327;DHT22;37412;52.836;6.362;2023-08-31T10:14:20;18.60;99.90
51327;DHT22;37412;52.836;6.362;2023-08-31T10:17:07;18.40;99.90
51327;DHT22;37412;52.836;6.362;2023-08-31T10:19:53;18.20;99.90
51327;DHT22;37412;52.836;6.362;2023-08-31T10:22:39;17.90;99.90
51327;DHT22;37412;52.836;6.362;2023-08-31T10:25:27;17.80;99.90
51327;DHT22;37412;52.836;6.362;2023-08-31T10:28:39;17.60;99.90
51327;DHT22;37412;52.836;6.362;2023-08-31T10:31:28;17.40;99.90
51327;DHT22;37412;52.836;6.362;2023-08-31T10:34:14;17.40;99.90
51327;DHT22;37412;52.836;6.362;2023-08-31T10:37:01;17.40;99.90
51327;DHT22;37412;52.836;6.362;2023-08-31T10:39:48;17.50;99.90
51327;DHT22;37412;52.836;6.362;2023-08-31T10:42:44;17.60;99.90
51327;DHT22;37412;52.836;6.362;2023-08-31T10:45:30;17.60;99.90
51327;DHT22;37412;52.836;6.362;2023-08-31T10:48:24;17.50;99.90
51327;DHT22;37412;52.836;6.362;2023-08-31T10:51:15;17.50;99.90
51327;DHT22;37412;52.836;6.362;2023-08-31T10:59:51;17.50;99.90
51327;DHT22;37412;52.836;6.362;2023-08-31T11:02:43;17.60;99.90
51327;DHT22;37412;52.836;6.362;2023-08-31T11:05:29;17.70;99.90
51327;DHT22;37412;52.836;6.362;2023-08-31T11:08:15;17.90;99.90
51327;DHT22;37412;52.836;6.362;2023-08-31T11:11:01;18.00;99.90
51327;DHT22;37412;52.836;6.362;2023-08-31T11:13:48;18.00;99.90
51327;DHT22;37412;52.836;6.362;2023-08-31T11:16:37;18.00;99.90
51327;DHT22;37412;52.836;6.362;2023-08-31T11:19:23;18.10;99.90
51327;DHT22;37412;52.836;6.362;2023-08-31T11:22:09;18.00;99.90
51327;DHT22;37412;52.836;6.362;2023-08-31T11:24:56;18.00;99.90
51327;DHT22;37412;52.836;6.362;2023-08-31T11:27:42;17.80;99.90
51327;DHT22;37412;52.836;6.362;2023-08-31T11:30:38;17.70;99.90
51327;DHT22;37412;52.836;6.362;2023-08-31T11:33:24;17.70;99.90
51327;DHT22;37412;52.836;6.362;2023-08-31T11:36:16;17.80;99.90
51327;DHT22;37412;52.836;6.362;2023-08-31T11:39:05;17.90;99.90
51327;DHT22;37412;52.836;6.362;2023-08-31T11:41:51;17.80;99.90
51327;DHT22;37412;52.836;6.362;2023-08-31T11:44:37;17.60;99.90
51327;DHT22;37412;52.836;6.362;2023-08-31T11:47:23;17.40;99.90
51327;DHT22;37412;52.836;6.362;2023-08-31T11:50:10;17.30;99.90
51327;DHT22;37412;52.836;6.362;2023-08-31T11:52:56;17.20;99.90
51327;DHT22;37412;52.836;6.362;2023-08-31T11:55:51;17.40;99.90
51327;DHT22;37412;52.836;6.362;2023-08-31T11:58:41;17.40;99.90
51327;DHT22;37412;52.836;6.362;2023-08-31T12:01:28;17.60;99.90
51327;DHT22;37412;52.836;6.362;2023-08-31T12:04:14;17.90;99.90
51327;DHT22;37412;52.836;6.362;2023-08-31T12:07:01;18.10;99.90
51327;DHT22;37412;52.836;6.362;2023-08-31T12:09:50;18.40;99.90
51327;DHT22;37412;52.836;6.362;2023-08-31T12:12:36;18.70;99.90
51327;DHT22;37412;52.836;6.362;2023-08-31T12:15:23;18.80;99.90
51327;DHT22;37412;52.836;6.362;2023-08-31T12:18:13;18.60;99.90
51327;DHT22;37412;52.836;6.362;2023-08-31T12:20:59;18.30;99.90
51327;DHT22;37412;52.836;6.362;2023-08-31T12:23:45;18.00;99.90
51327;DHT22;37412;52.836;6.362;2023-08-31T12:26:31;17.80;99.90
51327;DHT22;37412;52.836;6.362;2023-08-31T12:29:17;17.60;99.90
51327;DHT22;37412;52.836;6.362;2023-08-31T12:32:03;17.50;99.90
51327;DHT22;37412;52.836;6.362;2023-08-31T12:34:49;17.40;99.90
51327;DHT22;37412;52.836;6.362;2023-08-31T12:37:34;17.40;99.90
51327;DHT22;37412;52.836;6.362;2023-08-31T12:40:20;17.60;99.90
51327;DHT22;37412;52.836;6.362;2023-08-31T12:43:07;17.90;99.90
51327;DHT22;37412;52.836;6.362;2023-08-31T12:45:54;18.00;99.90
51327;DHT22;37412;52.836;6.362;2023-08-31T12:48:40;17.90;99.90
51327;DHT22;37412;52.836;6.362;2023-08-31T12:51:26;17.70;99.90
51327;DHT22;37412;52.836;6.362;2023-08-31T12:54:12;17.50;99.90
51327;DHT22;37412;52.836;6.362;2023-08-31T12:56:58;17.20;99.90
51327;DHT22;37412;52.836;6.362;2023-08-31T12:59:44;17.00;99.90
51327;DHT22;37412;52.836;6.362;2023-08-31T13:02:29;16.90;99.90
51327;DHT22;37412;52.836;6.362;2023-08-31T13:05:15;16.70;99.90
51327;DHT22;37412;52.836;6.362;2023-08-31T13:08:01;16.60;99.90
51327;DHT22;37412;52.836;6.362;2023-08-31T13:10:50;16.70;99.90
51327;DHT22;37412;52.836;6.362;2023-08-31T13:13:37;17.10;99.90
51327;DHT22;37412;52.836;6.362;2023-08-31T13:16:23;17.50;99.90
51327;DHT22;37412;52.836;6.362;2023-08-31T13:19:10;18.00;99.90
51327;DHT22;37412;52.836;6.362;2023-08-31T13:21:56;18.40;99.90
51327;DHT22;37412;52.836;6.362;2023-08-31T13:24:41;18.70;99.90
51327;DHT22;37412;52.836;6.362;2023-08-31T13:27:27;19.00;99.90
51327;DHT22;37412;52.836;6.362;2023-08-31T13:30:13;19.20;99.90
51327;DHT22;37412;52.836;6.362;2023-08-31T13:32:59;19.30;99.90
51327;DHT22;37412;52.836;6.362;2023-08-31T13:35:45;19.50;99.90
51327;DHT22;37412;52.836;6.362;2023-08-31T13:38:31;19.70;99.90
51327;DHT22;37412;52.836;6.362;2023-08-31T13:41:17;20.00;99.90
51327;DHT22;37412;52.836;6.362;2023-08-31T13:44:03;20.30;99.90
51327;DHT22;37412;52.836;6.362;2023-08-31T13:46:49;20.50;99.90
51327;DHT22;37412;52.836;6.362;2023-08-31T13:49:34;20.60;99.90
51327;DHT22;37412;52.836;6.362;2023-08-31T13:52:20;20.40;99.90
51327;DHT22;37412;52.836;6.362;2023-08-31T13:55:07;20.30;99.90
51327;DHT22;37412;52.836;6.362;2023-08-31T13:57:52;20.00;99.90
51327;DHT22;37412;52.836;6.362;2023-08-31T14:00:39;20.00;99.90
51327;DHT22;37412;52.836;6.362;2023-08-31T14:03:25;20.10;99.90
51327;DHT22;37412;52.836;6.362;2023-08-31T14:06:11;20.10;99.90
51327;DHT22;37412;52.836;6.362;2023-08-31T14:08:57;19.90;99.90
51327;DHT22;37412;52.836;6.362;2023-08-31T14:11:43;19.70;99.90
51327;DHT22;37412;52.836;6.362;2023-08-31T14:14:29;19.70;99.90
51327;DHT22;37412;52.836;6.362;2023-08-31T14:17:15;19.80;99.90
51327;DHT22;37412;52.836;6.362;2023-08-31T14:20:00;19.90;99.90
51327;DHT22;37412;52.836;6.362;2023-08-31T14:22:46;19.70;99.90
51327;DHT22;37412;52.836;6.362;2023-08-31T14:25:38;19.60;99.90
51327;DHT22;37412;52.836;6.362;2023-08-31T14:28:24;19.90;99.90
51327;DHT22;37412;52.836;6.362;2023-08-31T14:31:10;20.10;99.90
51327;DHT22;37412;52.836;6.362;2023-08-31T14:33:56;20.40;99.90
51327;DHT22;37412;52.836;6.362;2023-08-31T14:36:42;20.50;99.90
51327;DHT22;37412;52.836;6.362;2023-08-31T14:39:27;20.70;99.90
51327;DHT22;37412;52.836;6.362;2023-08-31T14:42:16;20.80;99.90
51327;DHT22;37412;52.836;6.362;2023-08-31T14:45:03;20.80;99.90
51327;DHT22;37412;52.836;6.362;2023-08-31T14:47:49;20.50;99.90
51327;DHT22;37412;52.836;6.362;2023-08-31T14:50:35;20.20;99.90
51327;DHT22;37412;52.836;6.362;2023-08-31T14:53:20;20.30;99.90
51327;DHT22;37412;52.836;6.362;2023-08-31T14:56:08;20.50;99.90
51327;DHT22;37412;52.836;6.362;2023-08-31T14:58:54;20.60;99.90
51327;DHT22;37412;52.836;6.362;2023-08-31T15:01:40;20.60;99.90
51327;DHT22;37412;52.836;6.362;2023-08-31T15:04:26;20.70;99.90
51327;DHT22;37412;52.836;6.362;2023-08-31T15:07:11;20.60;99.90
51327;DHT22;37412;52.836;6.362;2023-08-31T15:09:57;20.50;99.90
51327;DHT22;37412;52.836;6.362;2023-08-31T15:12:43;20.40;99.90
51327;DHT22;37412;52.836;6.362;2023-08-31T15:15:29;20.30;99.90
51327;DHT22;37412;52.836;6.362;2023-08-31T15:18:15;20.30;99.90
51327;DHT22;37412;52.836;6.362;2023-08-31T15:21:01;20.20;99.90
51327;DHT22;37412;52.836;6.362;2023-08-31T15:23:47;20.10;99.90
51327;DHT22;37412;52.836;6.362;2023-08-31T15:26:33;20.00;99.90
51327;DHT22;37412;52.836;6.362;2023-08-31T15:29:19;19.90;99.90
51327;DHT22;37412;52.836;6.362;2023-08-31T15:32:05;19.80;99.90
51327;DHT22;37412;52.836;6.362;2023-08-31T15:34:51;19.70;99.90
51327;DHT22;37412;52.836;6.362;2023-08-31T15:37:37;19.60;99.90
51327;DHT22;37412;52.836;6.362;2023-08-31T15:40:22;19.60;99.90
51327;DHT22;37412;52.836;6.362;2023-08-31T15:43:08;19.50;99.90
51327;DHT22;37412;52.836;6.362;2023-08-31T15:45:54;19.40;99.90
51327;DHT22;37412;52.836;6.362;2023-08-31T15:48:40;19.20;99.90
51327;DHT22;37412;52.836;6.362;2023-08-31T15:51:26;19.10;99.90
51327;DHT22;37412;52.836;6.362;2023-08-31T15:54:14;19.10;99.90
51327;DHT22;37412;52.836;6.362;2023-08-31T15:57:00;19.10;99.90
51327;DHT22;37412;52.836;6.362;2023-08-31T15:59:46;19.10;99.90
51327;DHT22;37412;52.836;6.362;2023-08-31T16:02:35;19.00;99.90
51327;DHT22;37412;52.836;6.362;2023-08-31T16:05:21;19.00;99.90
51327;DHT22;37412;52.836;6.362;2023-08-31T16:08:07;18.90;99.90
51327;DHT22;37412;52.836;6.362;2023-08-31T16:10:53;18.90;99.90
51327;DHT22;37412;52.836;6.362;2023-08-31T16:13:38;18.80;99.90
51327;DHT22;37412;52.836;6.362;2023-08-31T16:16:26;19.20;99.90
51327;DHT22;37412;52.836;6.362;2023-08-31T16:19:11;18.80;99.90
51327;DHT22;37412;52.836;6.362;2023-08-31T16:21:57;18.80;99.90
51327;DHT22;37412;52.836;6.362;2023-08-31T16:24:44;18.70;99.90
51327;DHT22;37412;52.836;6.362;2023-08-31T16:27:30;18.70;99.90
51327;DHT22;37412;52.836;6.362;2023-08-31T16:30:17;18.70;99.90
51327;DHT22;37412;52.836;6.362;2023-08-31T16:33:02;18.60;99.90
51327;DHT22;37412;52.836;6.362;2023-08-31T16:35:48;18.60;99.90
51327;DHT22;37412;52.836;6.362;2023-08-31T16:38:34;18.50;99.90
51327;DHT22;37412;52.836;6.362;2023-08-31T16:41:20;18.40;99.90
51327;DHT22;37412;52.836;6.362;2023-08-31T16:44:06;18.40;99.90
51327;DHT22;37412;52.836;6.362;2023-08-31T16:46:52;18.40;99.90
51327;DHT22;37412;52.836;6.362;2023-08-31T16:49:37;18.20;99.90
51327;DHT22;37412;52.836;6.362;2023-08-31T16:52:23;18.30;99.90
51327;DHT22;37412;52.836;6.362;2023-08-31T16:55:09;18.10;99.90
51327;DHT22;37412;52.836;6.362;2023-08-31T16:57:55;18.10;99.90
51327;DHT22;37412;52.836;6.362;2023-08-31T17:00:41;18.10;99.90
51327;DHT22;37412;52.836;6.362;2023-08-31T17:03:27;18.10;99.90
51327;DHT22;37412;52.836;6.362;2023-08-31T17:06:13;18.00;99.90
51327;DHT22;37412;52.836;6.362;2023-08-31T17:08:58;17.90;99.90
51327;DHT22;37412;52.836;6.362;2023-08-31T17:11:44;17.90;99.90
51327;DHT22;37412;52.836;6.362;2023-08-31T17:14:31;17.80;99.90
51327;DHT22;37412;52.836;6.362;2023-08-31T17:17:17;17.70;99.90
51327;DHT22;37412;52.836;6.362;2023-08-31T17:20:04;17.70;99.90
51327;DHT22;37412;52.836;6.362;2023-08-31T17:22:51;17.60;99.90
51327;DHT22;37412;52.836;6.362;2023-08-31T17:25:37;17.60;99.90
51327;DHT22;37412;52.836;6.362;2023-08-31T17:28:23;17.50;99.90
51327;DHT22;37412;52.836;6.362;2023-08-31T17:31:09;17.40;99.90
51327;DHT22;37412;52.836;6.362;2023-08-31T17:33:55;17.40;99.90
51327;DHT22;37412;52.836;6.362;2023-08-31T17:36:43;17.30;99.90
51327;DHT22;37412;52.836;6.362;2023-08-31T17:39:29;17.30;99.90
51327;DHT22;37412;52.836;6.362;2023-08-31T17:42:15;17.20;99.90
51327;DHT22;37412;52.836;6.362;2023-08-31T17:45:01;17.10;99.90